< < Back
Terminal Aerodrome Forecast


Current Version              Previous Versions:   1  2  3  4  5  6  7  8  9  

Terminal Aerodrome Forecast

575
FTUS44 KMRX 012321
TAFTYS
TAF
KTYS 012321Z 0200/0224 22010KT P6SM VCSH SCT040 OVC100
     FM020500 23007KT P6SM SCT025 BKN080
     FM020900 22006KT 6SM BR VCTS BKN025CB
     FM021600 23010KT P6SM VCTS SCT025CB BKN100
     FM022100 23012G22KT 4SM -TSRA BKN030CB OVC060=



Latest METAR

206
SAUS80 KWBC 020000 RRA
MTRTYS
METAR KTYS 012353Z 21010KT 7SM FEW045 BKN120 OVC200 22/19 A2998 RMK AO2
RAE45 SLP141 P0000 60000 T02170189 10256 20217 58007


USA.gov is the U.S. government's official web portal to all federal, state and local government web resources and services.